Time;durP1;ratioP1;P1;durP2;ratioP2;P2;SDS_P1;SDS_P2;PMS_P1;PMS_P2;Temp;Humidity;BMP_temperature;BMP_pressure;BME280_temperature;BME280_humidity;BME280_pressure;Samples;Min_cycle;Max_cycle;Signal;HPM_P1;HPM_P2
2022/03/11 00:02:10;;;;;;;7.90;5.50;;;6.40;67.90;;;;;;5065286;22;20237;-59
2022/03/11 00:04:37;;;;;;;10.40;5.60;;;6.30;68.40;;;;;;5032668;28;20203;-59
2022/03/11 00:07:04;;;;;;;7.83;5.47;;;6.20;68.30;;;;;;5032381;28;20327;-59
2022/03/11 00:09:31;;;;;;;7.77;5.50;;;6.20;68.80;;;;;;5032210;28;20632;-60
2022/03/11 00:11:58;;;;;;;8.83;6.03;;;6.10;69.00;;;;;;5032540;28;20280;-60
2022/03/11 00:14:25;;;;;;;9.20;5.70;;;6.00;69.40;;;;;;5032486;28;20210;-60
2022/03/11 00:16:53;;;;;;;8.43;6.40;;;6.00;69.40;;;;;;5032037;28;20276;-60
2022/03/11 00:19:19;;;;;;;10.30;6.10;;;6.00;69.50;;;;;;5032380;28;20202;-59
2022/03/11 00:21:46;;;;;;;10.60;6.03;;;6.00;69.90;;;;;;5032099;28;20222;-60
2022/03/11 00:24:13;;;;;;;9.43;5.90;;;6.00;69.90;;;;;;5032443;28;20210;-60
2022/03/11 00:26:39;;;;;;;8.97;6.40;;;6.00;70.70;;;;;;5032271;28;20202;-60
2022/03/11 00:29:06;;;;;;;9.53;6.77;;;5.90;70.80;;;;;;5031925;28;20256;-59
2022/03/11 00:31:33;;;;;;;11.60;7.00;;;5.90;72.10;;;;;;5031771;28;20238;-60
2022/03/11 00:34:01;;;;;;;9.80;6.83;;;5.80;72.60;;;;;;5031816;28;20214;-59
2022/03/11 00:36:27;;;;;;;10.57;7.03;;;5.80;73.00;;;;;;5032056;28;20317;-59
2022/03/11 00:38:54;;;;;;;9.43;6.57;;;5.80;72.80;;;;;;5032258;28;20206;-60
2022/03/11 00:41:21;;;;;;;9.60;6.90;;;5.90;72.50;;;;;;5032132;28;20237;-60
2022/03/11 00:43:48;;;;;;;10.67;7.17;;;5.80;72.30;;;;;;5031953;28;20206;-60
2022/03/11 00:46:14;;;;;;;11.23;7.17;;;5.80;72.70;;;;;;5031900;28;20209;-60
2022/03/11 00:48:41;;;;;;;10.00;6.97;;;5.80;73.00;;;;;;5031817;28;20210;-60
2022/03/11 00:51:09;;;;;;;11.77;6.77;;;5.80;73.40;;;;;;5031516;28;20674;-59
2022/03/11 00:53:36;;;;;;;8.60;6.50;;;5.60;73.80;;;;;;5031881;28;20213;-60
2022/03/11 00:56:02;;;;;;;8.27;5.83;;;5.50;73.70;;;;;;5031604;28;20225;-60
2022/03/11 00:58:29;;;;;;;9.77;6.47;;;5.40;74.00;;;;;;5031631;28;20210;-58
2022/03/11 01:00:56;;;;;;;8.87;6.07;;;5.20;74.30;;;;;;5031242;28;20209;-60
2022/03/11 01:03:22;;;;;;;9.43;6.30;;;5.30;74.50;;;;;;5031521;28;20213;-60
2022/03/11 01:05:49;;;;;;;10.37;5.87;;;5.20;74.70;;;;;;5031750;28;20232;-60
2022/03/11 01:08:17;;;;;;;9.20;6.20;;;5.10;74.90;;;;;;5031833;28;20218;-60
2022/03/11 01:10:44;;;;;;;10.90;6.70;;;5.10;74.90;;;;;;5031528;28;20214;-60
2022/03/11 01:13:10;;;;;;;8.93;6.60;;;5.00;75.90;;;;;;5031487;28;20272;-57
2022/03/11 01:15:37;;;;;;;9.23;6.37;;;5.00;76.30;;;;;;5031547;28;20217;-58
2022/03/11 01:18:04;;;;;;;15.27;7.73;;;5.00;76.10;;;;;;5031719;28;20230;-58
2022/03/11 01:20:30;;;;;;;11.37;7.77;;;5.00;76.70;;;;;;5031470;28;20260;-59
2022/03/11 01:22:57;;;;;;;13.20;7.13;;;5.00;76.80;;;;;;5034285;28;20252;-60
2022/03/11 01:25:25;;;;;;;10.63;7.30;;;5.00;76.70;;;;;;5035528;28;20217;-60
2022/03/11 01:27:52;;;;;;;10.37;7.30;;;5.00;76.80;;;;;;5035244;28;20210;-59
2022/03/11 01:30:18;;;;;;;11.00;6.63;;;4.90;77.00;;;;;;5034999;28;20268;-59
2022/03/11 01:32:45;;;;;;;12.93;6.80;;;4.80;77.40;;;;;;5035220;28;20230;-59
2022/03/11 01:35:12;;;;;;;9.63;6.67;;;4.80;77.50;;;;;;5037182;28;20210;-59
2022/03/11 01:37:39;;;;;;;9.40;6.97;;;4.70;77.90;;;;;;5035433;28;20229;-59
2022/03/11 01:40:07;;;;;;;11.17;7.20;;;4.50;78.40;;;;;;5035309;28;20210;-59
2022/03/11 01:42:36;;;;;;;13.13;7.30;;;4.50;78.50;;;;;;5035020;28;20280;-59
2022/03/11 01:45:04;;;;;;;11.13;7.97;;;4.40;79.70;;;;;;5035332;28;20213;-59
2022/03/11 01:47:31;;;;;;;10.50;7.67;;;4.20;80.10;;;;;;5035591;28;20217;-59
2022/03/11 01:49:57;;;;;;;11.40;7.87;;;4.20;80.30;;;;;;5035353;28;20210;-59
2022/03/11 01:52:24;;;;;;;11.97;8.10;;;4.20;80.90;;;;;;5035429;28;20234;-60
2022/03/11 01:54:51;;;;;;;10.77;7.53;;;4.10;81.50;;;;;;5034996;28;20738;-59
2022/03/11 01:57:18;;;;;;;10.43;7.00;;;4.00;81.70;;;;;;5034986;28;20230;-59
2022/03/11 01:59:46;;;;;;;13.93;8.10;;;4.00;81.80;;;;;;5034916;28;20210;-59
2022/03/11 02:02:13;;;;;;;14.70;9.60;;;3.90;82.50;;;;;;5034543;28;20242;-59
2022/03/11 02:04:41;;;;;;;14.47;8.97;;;4.00;83.00;;;;;;5034507;28;20210;-59
2022/03/11 02:07:08;;;;;;;13.43;8.93;;;4.00;83.10;;;;;;5034549;28;20585;-59
2022/03/11 02:09:35;;;;;;;14.30;10.50;;;4.10;82.80;;;;;;5034535;28;20256;-59
2022/03/11 02:12:01;;;;;;;12.67;9.00;;;4.10;83.50;;;;;;5033910;28;20226;-59
2022/03/11 02:14:28;;;;;;;12.77;9.17;;;4.10;83.40;;;;;;5034525;28;20239;-59
2022/03/11 02:16:56;;;;;;;13.50;8.87;;;4.20;83.30;;;;;;5034297;28;20230;-59
2022/03/11 02:19:24;;;;;;;13.07;8.87;;;4.10;83.90;;;;;;5034400;28;20203;-59
2022/03/11 02:21:53;;;;;;;13.83;9.30;;;4.00;84.20;;;;;;5033885;28;20222;-59
2022/03/11 02:24:22;;;;;;;13.83;9.73;;;4.00;84.30;;;;;;5034119;28;20210;-59
2022/03/11 02:26:48;;;;;;;15.77;9.43;;;3.90;85.10;;;;;;5034526;28;20289;-59
2022/03/11 02:29:15;;;;;;;13.60;9.50;;;3.90;85.20;;;;;;5034234;28;20217;-59
2022/03/11 02:31:42;;;;;;;15.57;9.27;;;3.90;85.10;;;;;;5033857;28;20229;-58
2022/03/11 02:34:09;;;;;;;13.70;9.83;;;3.90;85.10;;;;;;5034197;28;20576;-57
2022/03/11 02:36:36;;;;;;;16.30;9.83;;;3.80;85.50;;;;;;5033861;28;20222;-58
2022/03/11 02:39:03;;;;;;;15.47;10.00;;;3.70;85.60;;;;;;5033860;28;20213;-58
2022/03/11 02:41:31;;;;;;;15.77;10.27;;;3.70;86.10;;;;;;5033740;28;20237;-58
2022/03/11 02:43:58;;;;;;;15.43;10.77;;;3.60;86.50;;;;;;5034104;28;20206;-58
2022/03/11 02:46:25;;;;;;;15.63;10.20;;;3.50;86.90;;;;;;5033693;28;20280;-58
2022/03/11 02:48:52;;;;;;;18.20;10.37;;;3.40;87.10;;;;;;5033757;28;20217;-58
2022/03/11 02:51:18;;;;;;;18.63;11.53;;;3.30;87.20;;;;;;5033304;28;20284;-58
2022/03/11 02:53:45;;;;;;;17.23;11.77;;;3.20;87.80;;;;;;5033580;28;20214;-58
2022/03/11 02:56:12;;;;;;;18.63;11.97;;;3.10;88.10;;;;;;5033638;28;20217;-58
2022/03/11 02:58:42;;;;;;;17.40;11.63;;;3.20;88.20;;;;;;5033485;28;20226;-58
2022/03/11 03:01:09;;;;;;;17.23;11.73;;;3.20;88.10;;;;;;5033122;28;20210;-58
2022/03/11 03:03:36;;;;;;;19.83;11.80;;;3.20;87.80;;;;;;5033537;28;20210;-58
2022/03/11 03:06:03;;;;;;;21.63;12.37;;;3.30;87.20;;;;;;5033284;28;20704;-58
2022/03/11 03:08:30;;;;;;;16.00;11.67;;;3.40;86.80;;;;;;5033519;28;20229;-58
2022/03/11 03:10:57;;;;;;;17.37;11.23;;;3.30;86.90;;;;;;5033251;28;20202;-58
2022/03/11 03:13:23;;;;;;;17.17;11.97;;;3.20;86.50;;;;;;5033610;28;20214;-58
2022/03/11 03:15:51;;;;;;;20.13;11.97;;;3.20;86.50;;;;;;5033431;28;20210;-59
2022/03/11 03:18:18;;;;;;;16.80;11.77;;;3.20;86.30;;;;;;5033340;28;20253;-58
2022/03/11 03:20:45;;;;;;;17.97;11.53;;;3.30;86.10;;;;;;5032925;28;20210;-58
2022/03/11 03:23:11;;;;;;;17.27;11.17;;;3.20;85.90;;;;;;5033697;28;20249;-59
2022/03/11 03:25:38;;;;;;;16.47;11.30;;;3.20;85.60;;;;;;5033391;28;20206;-59
2022/03/11 03:28:05;;;;;;;17.40;11.87;;;3.20;85.60;;;;;;5032964;28;20682;-58
2022/03/11 03:30:32;;;;;;;16.40;11.00;;;3.10;85.50;;;;;;5032820;28;20256;-58
2022/03/11 03:33:00;;;;;;;15.27;11.27;;;3.10;85.40;;;;;;5032713;28;20277;-58
2022/03/11 03:35:26;;;;;;;17.30;10.80;;;3.00;85.20;;;;;;5032809;28;20670;-58
2022/03/11 03:37:53;;;;;;;14.50;10.70;;;3.00;85.20;;;;;;5032890;28;20457;-58
2022/03/11 03:40:20;;;;;;;14.67;10.87;;;3.00;85.00;;;;;;5032694;28;20210;-58
2022/03/11 03:42:47;;;;;;;16.87;11.10;;;2.90;84.80;;;;;;5032726;28;20226;-58
2022/03/11 03:45:14;;;;;;;13.50;9.73;;;2.90;85.10;;;;;;5032533;28;20657;-59
2022/03/11 03:47:41;;;;;;;19.17;10.87;;;2.90;85.20;;;;;;5032693;28;20708;-59
2022/03/11 03:50:10;;;;;;;16.23;10.83;;;2.90;85.30;;;;;;5032578;28;20229;-59
2022/03/11 03:52:37;;;;;;;15.27;10.70;;;2.80;85.30;;;;;;5032738;28;20226;-58
2022/03/11 03:55:04;;;;;;;16.77;10.63;;;2.80;85.10;;;;;;5032779;28;20264;-58
2022/03/11 03:57:32;;;;;;;14.80;10.37;;;2.90;84.80;;;;;;5032738;28;20647;-58
2022/03/11 03:59:58;;;;;;;14.57;10.33;;;3.00;84.50;;;;;;5032411;28;20684;-58
2022/03/11 04:02:25;;;;;;;14.00;10.10;;;2.90;84.80;;;;;;5032206;28;20672;-58
2022/03/11 04:04:51;;;;;;;15.83;10.67;;;2.80;84.90;;;;;;5032820;28;20214;-58
2022/03/11 04:07:19;;;;;;;16.13;11.07;;;2.90;85.20;;;;;;5032572;28;20248;-58
2022/03/11 04:09:47;;;;;;;15.70;10.23;;;2.70;85.40;;;;;;5032711;28;20631;-58
2022/03/11 04:12:13;;;;;;;13.97;9.83;;;2.70;85.50;;;;;;5031957;28;20230;-58
2022/03/11 04:14:40;;;;;;;13.63;9.83;;;2.60;85.20;;;;;;5032058;28;20625;-58
2022/03/11 04:17:07;;;;;;;14.13;9.97;;;2.50;85.20;;;;;;5032002;28;20226;-58
2022/03/11 04:19:34;;;;;;;15.27;10.13;;;2.50;85.20;;;;;;5032341;28;20206;-59
2022/03/11 04:22:01;;;;;;;14.53;10.00;;;2.50;85.00;;;;;;5032014;28;20324;-58
2022/03/11 04:24:29;;;;;;;18.73;10.33;;;2.50;84.90;;;;;;5032096;28;20214;-58
2022/03/11 04:26:56;;;;;;;16.70;9.93;;;2.50;84.40;;;;;;5032084;28;20210;-58
2022/03/11 04:29:26;;;;;;;14.03;9.73;;;2.60;84.10;;;;;;5031954;28;20214;-59
2022/03/11 04:31:52;;;;;;;13.13;9.23;;;2.60;83.90;;;;;;5031923;28;20636;-58
2022/03/11 04:34:19;;;;;;;14.63;9.47;;;2.60;83.60;;;;;;5032234;28;20256;-58
2022/03/11 04:36:46;;;;;;;13.53;9.80;;;2.60;83.40;;;;;;5032078;28;20245;-58
2022/03/11 04:39:14;;;;;;;15.90;9.93;;;2.70;83.20;;;;;;5031922;28;20210;-58
2022/03/11 04:41:42;;;;;;;15.80;9.67;;;2.60;83.10;;;;;;5031750;28;20625;-58
2022/03/11 04:44:09;;;;;;;15.90;9.73;;;2.60;83.00;;;;;;5032071;28;20737;-58
2022/03/11 04:46:36;;;;;;;14.03;9.33;;;2.70;82.90;;;;;;5032035;28;20213;-59
2022/03/11 04:49:03;;;;;;;16.03;8.93;;;2.60;82.50;;;;;;5032117;28;20249;-58
2022/03/11 04:51:29;;;;;;;12.77;8.70;;;2.60;82.50;;;;;;5031591;28;20226;-58
2022/03/11 04:53:56;;;;;;;14.87;9.33;;;2.60;82.50;;;;;;5032010;28;20210;-58
2022/03/11 04:56:23;;;;;;;11.70;8.97;;;2.50;82.30;;;;;;5031886;28;20670;-58
2022/03/11 04:58:51;;;;;;;14.47;9.73;;;2.40;82.20;;;;;;5035908;28;20228;-58
2022/03/11 05:01:17;;;;;;;14.17;9.40;;;2.30;82.30;;;;;;5035506;28;20238;-59
2022/03/11 05:03:44;;;;;;;15.20;8.90;;;2.20;82.30;;;;;;5036425;28;20241;-58
2022/03/11 05:06:11;;;;;;;11.83;8.00;;;2.10;82.30;;;;;;5035837;28;20670;-58
2022/03/11 05:08:38;;;;;;;11.37;8.03;;;2.10;82.50;;;;;;5035988;28;20202;-58
2022/03/11 05:11:05;;;;;;;14.83;9.00;;;2.10;82.30;;;;;;5035642;28;20210;-58
2022/03/11 05:13:31;;;;;;;11.77;8.43;;;2.00;82.00;;;;;;5035801;28;20210;-59
2022/03/11 05:16:00;;;;;;;11.73;8.67;;;2.10;81.80;;;;;;5035817;28;20588;-58
2022/03/11 05:18:27;;;;;;;10.97;7.70;;;2.20;81.50;;;;;;5035918;28;20230;-58
2022/03/11 05:20:54;;;;;;;10.57;7.70;;;2.20;80.90;;;;;;5035236;28;20213;-60
2022/03/11 05:23:21;;;;;;;11.90;7.70;;;2.10;80.50;;;;;;5035300;28;20206;-59
2022/03/11 05:25:48;;;;;;;10.90;7.53;;;2.00;80.30;;;;;;5035428;28;20214;-59
2022/03/11 05:28:14;;;;;;;11.63;7.50;;;2.00;80.00;;;;;;5035704;28;20736;-59
2022/03/11 05:30:41;;;;;;;14.77;7.80;;;2.00;79.60;;;;;;5035093;28;20209;-60
2022/03/11 05:33:09;;;;;;;10.30;7.30;;;2.00;79.50;;;;;;5035269;28;20226;-59
2022/03/11 05:35:36;;;;;;;11.87;7.37;;;1.90;79.50;;;;;;5035182;28;20210;-59
2022/03/11 05:38:03;;;;;;;11.67;7.20;;;1.90;79.50;;;;;;5034989;28;20229;-59
2022/03/11 05:40:29;;;;;;;13.40;7.10;;;1.80;79.20;;;;;;5035178;28;20622;-59
2022/03/11 05:42:56;;;;;;;12.97;6.90;;;1.80;78.90;;;;;;5035572;28;20241;-59
2022/03/11 05:45:23;;;;;;;10.93;6.67;;;1.80;78.60;;;;;;5035088;28;20207;-59
2022/03/11 05:47:49;;;;;;;9.27;6.37;;;1.90;77.90;;;;;;5034820;28;20207;-59
2022/03/11 05:50:18;;;;;;;12.13;6.33;;;1.90;77.10;;;;;;5034611;28;20572;-58
2022/03/11 05:52:44;;;;;;;11.77;5.90;;;1.90;77.10;;;;;;5034687;28;20222;-58
2022/03/11 05:55:12;;;;;;;8.13;5.57;;;1.90;76.50;;;;;;5035317;28;20206;-58
2022/03/11 05:57:38;;;;;;;11.13;5.90;;;1.80;76.20;;;;;;5034644;28;20222;-58
2022/03/11 06:00:07;;;;;;;8.97;5.70;;;1.80;76.00;;;;;;5034547;28;20341;-58
2022/03/11 06:02:33;;;;;;;8.50;5.40;;;1.70;75.90;;;;;;5069084;22;20299;-56
2022/03/11 06:05:00;;;;;;;9.77;6.10;;;1.80;75.90;;;;;;5054519;28;20201;-57
2022/03/11 06:07:28;;;;;;;10.50;6.00;;;1.80;75.30;;;;;;5053583;28;20225;-57
2022/03/11 06:09:55;;;;;;;9.43;5.87;;;1.90;74.80;;;;;;5054479;28;20263;-56
2022/03/11 06:12:22;;;;;;;8.83;5.87;;;1.90;74.70;;;;;;5054422;28;20226;-58
2022/03/11 06:14:49;;;;;;;8.60;6.17;;;2.10;74.10;;;;;;5054164;28;20388;-59
2022/03/11 06:17:16;;;;;;;7.87;5.67;;;2.20;73.70;;;;;;5054919;28;20245;-59
2022/03/11 06:19:43;;;;;;;11.13;5.93;;;2.30;73.30;;;;;;5054180;28;20291;-58
2022/03/11 06:22:09;;;;;;;7.70;5.70;;;2.30;73.10;;;;;;5054087;28;20229;-59
2022/03/11 06:24:37;;;;;;;7.23;5.23;;;2.30;72.70;;;;;;5054286;28;20202;-58
2022/03/11 06:27:04;;;;;;;7.90;5.90;;;2.40;72.80;;;;;;5054277;28;20624;-59
2022/03/11 06:29:31;;;;;;;10.83;5.80;;;2.30;72.40;;;;;;5054782;28;20283;-58
2022/03/11 06:31:58;;;;;;;9.63;5.83;;;2.30;72.30;;;;;;5054691;28;20233;-60
2022/03/11 06:34:25;;;;;;;7.90;5.53;;;2.40;72.00;;;;;;5053862;28;20205;-58
2022/03/11 06:36:52;;;;;;;8.53;5.47;;;2.60;71.70;;;;;;5053877;28;20209;-58
2022/03/11 06:39:18;;;;;;;10.10;5.50;;;2.70;71.00;;;;;;5053612;28;20762;-59
2022/03/11 06:41:46;;;;;;;8.83;5.37;;;3.40;70.20;;;;;;5053721;28;20647;-58
2022/03/11 06:44:16;;;;;;;7.60;5.13;;;4.50;67.90;;;;;;5053907;28;20234;-57
2022/03/11 06:46:42;;;;;;;6.73;4.93;;;5.60;64.60;;;;;;5050515;28;20251;-61
2022/03/11 06:49:10;;;;;;;7.27;5.30;;;6.40;62.70;;;;;;5053193;28;20256;-59
2022/03/11 06:51:38;;;;;;;7.13;5.03;;;7.20;61.20;;;;;;5053138;28;20221;-58
2022/03/11 06:54:07;;;;;;;8.00;4.83;;;8.00;59.30;;;;;;5051161;28;20201;-59
2022/03/11 06:56:34;;;;;;;6.97;5.10;;;8.50;57.30;;;;;;5050024;28;20202;-59
2022/03/11 06:59:03;;;;;;;7.33;5.00;;;8.80;56.90;;;;;;5053054;28;20224;-59
2022/03/11 07:01:30;;;;;;;8.87;5.07;;;9.10;55.80;;;;;;5052497;28;20253;-58
2022/03/11 07:03:57;;;;;;;7.07;5.13;;;9.40;54.90;;;;;;5052986;28;20210;-61
2022/03/11 07:06:24;;;;;;;10.97;5.20;;;9.40;54.40;;;;;;5052976;28;20216;-60
2022/03/11 07:08:51;;;;;;;9.13;5.57;;;9.50;54.50;;;;;;5052798;28;20205;-60
2022/03/11 07:11:18;;;;;;;7.57;5.40;;;9.80;54.20;;;;;;5052686;28;20232;-59
2022/03/11 07:13:45;;;;;;;11.77;6.73;;;10.60;51.70;;;;;;5052138;28;20558;-61
2022/03/11 07:16:13;;;;;;;7.57;5.20;;;10.80;51.80;;;;;;5052540;28;20209;-56
2022/03/11 07:18:40;;;;;;;10.23;5.87;;;10.70;51.30;;;;;;5052485;28;20237;-56
2022/03/11 07:21:06;;;;;;;10.77;5.53;;;10.70;51.10;;;;;;5051833;28;20205;-56
2022/03/11 07:23:33;;;;;;;6.67;5.10;;;11.00;50.30;;;;;;5052910;28;20236;-57
2022/03/11 07:26:00;;;;;;;9.47;5.50;;;11.00;50.30;;;;;;5052616;28;20296;-56
2022/03/11 07:28:27;;;;;;;7.30;5.03;;;11.40;50.20;;;;;;5052384;28;20255;-61
2022/03/11 07:30:54;;;;;;;7.50;5.00;;;11.40;50.10;;;;;;5052600;28;20229;-63
2022/03/11 07:33:22;;;;;;;6.63;5.17;;;11.60;49.60;;;;;;5052564;28;20279;-61
2022/03/11 07:35:49;;;;;;;9.10;5.63;;;11.60;49.20;;;;;;5052797;28;20210;-59
2022/03/11 07:38:17;;;;;;;8.77;5.40;;;11.00;49.60;;;;;;5052582;28;20308;-58
2022/03/11 07:40:44;;;;;;;6.77;5.33;;;10.60;50.40;;;;;;5052082;28;20224;-59
2022/03/11 07:43:13;;;;;;;8.77;5.17;;;10.70;50.60;;;;;;5051547;28;20225;-59
2022/03/11 07:45:40;;;;;;;8.10;5.43;;;11.20;50.30;;;;;;5052118;28;20206;-57
2022/03/11 07:48:06;;;;;;;7.73;5.17;;;11.40;49.40;;;;;;5051892;28;20586;-57
2022/03/11 07:50:35;;;;;;;7.07;5.43;;;11.40;49.40;;;;;;5052138;28;20205;-59
2022/03/11 07:53:03;;;;;;;11.97;5.73;;;10.70;50.10;;;;;;5052153;28;20248;-57
2022/03/11 07:55:30;;;;;;;7.60;5.33;;;10.60;50.50;;;;;;5053346;28;20205;-58
2022/03/11 07:57:56;;;;;;;9.53;5.63;;;10.20;50.90;;;;;;5052018;28;20221;-59
2022/03/11 08:00:23;;;;;;;8.27;5.83;;;9.30;53.00;;;;;;5052299;28;20201;-58
2022/03/11 08:02:50;;;;;;;9.13;5.83;;;8.50;54.20;;;;;;5052455;28;20237;-57
2022/03/11 08:05:17;;;;;;;10.53;5.90;;;7.90;55.70;;;;;;5052201;28;20213;-62
2022/03/11 08:07:49;;;;;;;8.07;5.43;;;7.40;56.60;;;;;;5052217;28;20210;-57
2022/03/11 08:10:16;;;;;;;10.30;5.67;;;7.00;57.30;;;;;;5051944;28;20288;-60
2022/03/11 08:12:43;;;;;;;6.83;5.30;;;6.40;58.40;;;;;;5051824;28;20232;-63
2022/03/11 08:15:12;;;;;;;9.10;5.47;;;6.10;59.60;;;;;;5052027;28;20213;-60
2022/03/11 08:17:40;;;;;;;8.27;6.17;;;5.90;59.70;;;;;;5051910;28;20241;-58
2022/03/11 08:20:09;;;;;;;9.37;5.50;;;5.70;60.60;;;;;;5051867;28;20232;-60
2022/03/11 08:22:35;;;;;;;9.07;5.80;;;5.70;60.80;;;;;;5051364;28;20237;-60
2022/03/11 08:25:04;;;;;;;9.00;5.50;;;5.70;61.00;;;;;;5052004;28;20271;-60
2022/03/11 08:27:31;;;;;;;11.00;5.67;;;5.60;61.80;;;;;;5051855;28;20209;-61
2022/03/11 08:29:58;;;;;;;11.23;5.70;;;5.60;61.90;;;;;;5051769;28;20198;-60
2022/03/11 08:32:24;;;;;;;9.23;6.10;;;5.50;62.60;;;;;;5051508;28;20619;-59
2022/03/11 08:34:52;;;;;;;10.23;5.97;;;5.60;62.70;;;;;;5051117;28;20639;-59
2022/03/11 08:37:18;;;;;;;10.53;6.47;;;5.50;62.60;;;;;;5051309;28;20727;-59
2022/03/11 08:39:45;;;;;;;10.47;6.17;;;5.60;63.00;;;;;;5051750;28;20286;-59
2022/03/11 08:42:13;;;;;;;9.87;6.00;;;5.70;62.80;;;;;;5051112;28;20651;-60
2022/03/11 08:44:40;;;;;;;8.13;5.83;;;5.70;62.70;;;;;;5051595;28;20209;-59
2022/03/11 08:47:07;;;;;;;9.27;6.23;;;5.70;62.70;;;;;;5050684;28;20202;-59
2022/03/11 08:49:33;;;;;;;9.17;6.03;;;5.80;62.80;;;;;;5051394;28;20224;-59
2022/03/11 08:52:00;;;;;;;9.67;6.70;;;5.80;62.80;;;;;;5050984;28;20633;-60
2022/03/11 08:54:27;;;;;;;9.23;5.83;;;5.90;63.10;;;;;;5051086;28;20206;-58
2022/03/11 08:56:54;;;;;;;11.17;5.70;;;6.00;62.90;;;;;;5051203;28;20259;-59
2022/03/11 08:59:22;;;;;;;11.57;6.07;;;6.00;63.00;;;;;;5051445;28;20754;-58
2022/03/11 09:01:50;;;;;;;8.50;6.03;;;6.00;63.50;;;;;;5051196;28;20732;-56
2022/03/11 09:04:16;;;;;;;9.07;6.23;;;6.20;63.40;;;;;;5051392;28;20216;-61
2022/03/11 09:06:43;;;;;;;8.33;5.50;;;6.30;63.10;;;;;;5051631;28;20264;-58
2022/03/11 09:09:10;;;;;;;10.47;6.13;;;6.60;62.90;;;;;;5051594;28;20417;-58
2022/03/11 09:11:37;;;;;;;7.73;5.93;;;6.80;62.50;;;;;;5050926;28;20602;-59
2022/03/11 09:14:04;;;;;;;9.00;5.67;;;6.70;62.30;;;;;;5051448;28;20531;-56
2022/03/11 09:16:32;;;;;;;8.93;5.60;;;6.60;62.70;;;;;;5051508;28;20259;-58
2022/03/11 09:18:59;;;;;;;7.97;6.23;;;6.50;63.30;;;;;;5051136;28;20272;-56
2022/03/11 09:21:26;;;;;;;9.73;5.73;;;6.70;63.00;;;;;;5051481;28;20209;-57
2022/03/11 09:23:53;;;;;;;14.37;8.63;;;7.00;63.20;;;;;;5051321;28;20205;-58
2022/03/11 09:26:19;;;;;;;10.53;6.13;;;7.30;62.40;;;;;;5051180;28;20209;-57
2022/03/11 09:28:46;;;;;;;10.73;5.97;;;7.50;62.40;;;;;;5051626;28;20206;-58
2022/03/11 09:31:14;;;;;;;11.33;5.63;;;7.60;62.40;;;;;;5050855;28;20212;-57
2022/03/11 09:33:42;;;;;;;10.60;7.03;;;7.60;61.70;;;;;;5051130;28;20221;-57
2022/03/11 09:36:09;;;;;;;8.00;5.73;;;7.60;62.00;;;;;;5051206;28;20201;-57
2022/03/11 09:38:37;;;;;;;8.23;6.20;;;7.60;62.20;;;;;;5050972;28;20588;-58
2022/03/11 09:41:05;;;;;;;8.37;6.43;;;7.60;62.10;;;;;;5050800;28;20681;-57
2022/03/11 09:43:32;;;;;;;9.17;6.07;;;7.50;62.60;;;;;;5052402;28;20233;-57
2022/03/11 09:45:59;;;;;;;11.63;6.63;;;7.60;62.60;;;;;;5054444;28;20687;-56
2022/03/11 09:48:26;;;;;;;9.67;6.37;;;7.70;63.10;;;;;;5054142;28;20214;-57
2022/03/11 09:50:55;;;;;;;14.47;6.70;;;7.80;62.60;;;;;;5054301;28;20623;-59
2022/03/11 09:53:23;;;;;;;9.03;6.37;;;7.90;62.70;;;;;;5054633;28;20233;-59
2022/03/11 09:55:49;;;;;;;9.33;6.23;;;8.00;62.30;;;;;;5054485;28;20262;-57
2022/03/11 09:58:16;;;;;;;9.43;6.37;;;8.10;62.10;;;;;;5054338;28;20218;-58
2022/03/11 10:00:43;;;;;;;9.97;6.93;;;8.20;62.30;;;;;;5054012;28;20234;-55
2022/03/11 10:03:09;;;;;;;12.17;6.53;;;8.30;62.30;;;;;;5054250;28;20233;-55
2022/03/11 10:05:45;;;;;;;8.37;6.43;;;8.50;62.10;;;;;;5054246;28;20220;-55
2022/03/11 10:08:13;;;;;;;9.33;7.03;;;8.80;61.60;;;;;;5054781;28;20237;-55
2022/03/11 10:10:40;;;;;;;9.93;6.90;;;9.10;61.80;;;;;;5054156;28;20224;-57
2022/03/11 10:13:08;;;;;;;11.23;7.20;;;9.30;61.40;;;;;;5053932;28;20735;-55
2022/03/11 10:15:35;;;;;;;8.83;6.60;;;9.40;60.60;;;;;;5054545;28;20207;-56
2022/03/11 10:18:03;;;;;;;10.10;7.03;;;9.40;60.70;;;;;;5054329;28;20684;-56
2022/03/11 10:20:30;;;;;;;11.30;6.80;;;9.50;60.60;;;;;;5054060;28;20237;-56
2022/03/11 10:22:58;;;;;;;9.53;7.00;;;9.70;60.40;;;;;;5054237;28;20229;-56
2022/03/11 10:25:28;;;;;;;9.90;6.77;;;9.70;60.10;;;;;;5053904;28;20292;-59
2022/03/11 10:28:01;;;;;;;9.67;6.20;;;9.80;60.20;;;;;;5054169;28;20237;-58
2022/03/11 10:30:30;;;;;;;11.07;6.50;;;9.90;60.30;;;;;;5054413;28;20618;-56
2022/03/11 10:32:59;;;;;;;10.83;6.33;;;10.10;59.50;;;;;;5054437;28;20229;-55
2022/03/11 10:35:34;;;;;;;8.83;6.10;;;10.10;58.80;;;;;;5054662;28;20216;-55
2022/03/11 10:38:03;;;;;;;9.47;6.47;;;10.00;58.70;;;;;;5053913;28;20237;-56
2022/03/11 10:40:33;;;;;;;8.40;6.10;;;9.90;59.30;;;;;;5054142;28;20627;-56
2022/03/11 10:43:15;;;;;;;12.60;6.97;;;9.90;59.60;;;;;;5054323;28;20253;-55
2022/03/11 10:45:53;;;;;;;9.73;6.53;;;9.90;59.80;;;;;;5053838;28;20262;-56
2022/03/11 10:48:43;;;;;;;9.50;7.07;;;10.00;59.10;;;;;;5053857;28;20232;-56
2022/03/11 10:51:12;;;;;;;8.57;6.47;;;10.10;59.20;;;;;;5053981;28;20291;-56
2022/03/11 10:53:39;;;;;;;11.40;6.50;;;10.40;59.10;;;;;;5053661;28;20206;-56
2022/03/11 10:56:08;;;;;;;10.57;6.13;;;10.60;58.40;;;;;;5053581;28;20209;-57
2022/03/11 10:58:36;;;;;;;9.30;6.80;;;11.00;57.90;;;;;;5053321;28;20209;-59
2022/03/11 11:01:03;;;;;;;8.90;6.00;;;11.20;57.60;;;;;;5052920;28;20795;-57
2022/03/11 11:03:30;;;;;;;8.07;6.50;;;11.50;57.40;;;;;;5053146;28;20295;-55
2022/03/11 11:05:58;;;;;;;8.30;6.70;;;11.70;56.90;;;;;;5053411;28;20206;-56
2022/03/11 11:08:25;;;;;;;15.17;8.07;;;11.80;56.60;;;;;;5053450;28;20209;-55
2022/03/11 11:10:51;;;;;;;11.07;6.43;;;12.00;56.20;;;;;;5053128;28;20271;-54
2022/03/11 11:13:19;;;;;;;8.63;6.83;;;12.10;56.20;;;;;;5053253;28;20226;-55
2022/03/11 11:15:47;;;;;;;8.70;6.60;;;12.20;55.90;;;;;;5053544;28;20584;-54
2022/03/11 11:18:14;;;;;;;11.77;6.57;;;12.20;55.90;;;;;;5053226;28;20232;-54
2022/03/11 11:20:48;;;;;;;11.33;6.80;;;12.30;55.80;;;;;;5052956;28;20725;-57
2022/03/11 11:23:16;;;;;;;9.03;6.37;;;12.30;56.50;;;;;;5052803;28;20339;-57
2022/03/11 11:25:44;;;;;;;8.70;7.13;;;12.30;55.60;;;;;;5052901;28;20292;-60
2022/03/11 11:28:15;;;;;;;9.27;6.43;;;12.30;55.50;;;;;;5052609;28;20209;-58
2022/03/11 11:30:44;;;;;;;9.00;6.13;;;12.30;55.30;;;;;;5052932;28;20205;-60
2022/03/11 11:33:12;;;;;;;9.03;6.77;;;12.20;55.60;;;;;;5052677;28;20271;-60
2022/03/11 11:35:41;;;;;;;10.03;6.67;;;12.20;55.80;;;;;;5052690;28;20622;-60
2022/03/11 11:38:28;;;;;;;11.57;6.53;;;12.40;55.60;;;;;;5052781;28;20623;-60
2022/03/11 11:40:56;;;;;;;9.50;7.00;;;12.50;55.30;;;;;;5052657;28;20209;-61
2022/03/11 11:43:28;;;;;;;10.63;6.80;;;12.50;55.30;;;;;;5052551;28;20226;-61
2022/03/11 11:46:11;;;;;;;13.17;7.67;;;12.60;55.70;;;;;;5052609;28;20213;-58
2022/03/11 11:49:02;;;;;;;9.33;7.00;;;12.60;55.60;;;;;;5052587;28;20209;-59
2022/03/11 11:51:54;;;;;;;8.87;7.10;;;12.60;55.50;;;;;;5052267;28;20312;-58
2022/03/11 11:54:40;;;;;;;10.90;7.53;;;12.70;55.70;;;;;;5052536;28;20214;-59
2022/03/11 11:57:08;;;;;;;10.77;6.87;;;13.10;55.20;;;;;;5052198;28;20205;-60
2022/03/11 11:59:37;;;;;;;10.20;6.90;;;13.10;55.10;;;;;;5052065;28;20245;-62
2022/03/11 12:02:24;;;;;;;9.63;7.53;;;13.20;55.20;;;;;;5052241;28;20662;-59
2022/03/11 12:04:51;;;;;;;10.77;6.93;;;13.40;54.70;;;;;;5052122;28;20252;-60
2022/03/11 12:07:20;;;;;;;13.10;8.37;;;13.60;54.60;;;;;;5051555;28;20334;-57
2022/03/11 12:09:51;;;;;;;10.90;7.33;;;13.80;54.60;;;;;;5051576;28;20221;-58
2022/03/11 12:12:57;;;;;;;8.20;6.53;;;13.90;54.00;;;;;;5052035;28;20229;-57
2022/03/11 12:15:24;;;;;;;11.33;6.93;;;13.90;54.00;;;;;;5052163;28;20211;-57
2022/03/11 12:17:58;;;;;;;11.73;7.10;;;14.10;54.20;;;;;;5052111;28;20244;-57
2022/03/11 12:20:28;;;;;;;11.27;7.03;;;14.00;53.90;;;;;;5051658;28;20584;-56
2022/03/11 12:22:58;;;;;;;8.90;6.40;;;13.90;54.50;;;;;;5051716;28;20253;-57
2022/03/11 12:25:28;;;;;;;10.97;7.63;;;14.00;54.10;;;;;;5052069;28;20229;-57
2022/03/11 12:27:59;;;;;;;10.70;7.13;;;14.00;54.00;;;;;;5051659;28;20205;-56
2022/03/11 12:30:26;;;;;;;10.63;6.70;;;14.00;54.00;;;;;;5051896;28;20201;-56
2022/03/11 12:32:54;;;;;;;12.60;7.37;;;13.90;54.00;;;;;;5051389;28;20973;-56
2022/03/11 12:35:22;;;;;;;11.73;7.50;;;14.10;54.10;;;;;;5051899;28;20212;-57
2022/03/11 12:37:49;;;;;;;11.97;8.00;;;14.30;53.80;;;;;;5051997;28;20612;-56
2022/03/11 12:40:15;;;;;;;8.70;6.97;;;14.50;53.70;;;;;;5051517;28;20723;-58
2022/03/11 12:42:43;;;;;;;11.77;7.30;;;14.40;53.60;;;;;;5050110;28;20391;-58
2022/03/11 12:45:12;;;;;;;11.00;7.57;;;14.30;53.50;;;;;;5049962;28;20213;-58
2022/03/11 12:47:40;;;;;;;9.63;6.90;;;14.30;53.90;;;;;;5050761;28;20291;-58
2022/03/11 12:50:12;;;;;;;9.40;7.10;;;14.50;53.80;;;;;;5051372;28;20210;-61
2022/03/11 12:52:40;;;;;;;11.47;7.17;;;14.60;53.40;;;;;;5051198;28;20226;-60